Time;durP1;ratioP1;P1;durP2;ratioP2;P2;SDS_P1;SDS_P2;PMS_P1;PMS_P2;Temp;Humidity;BMP_temperature;BMP_pressure;BME280_temperature;BME280_humidity;BME280_pressure;Samples;Min_cycle;Max_cycle;Signal;HPM_P1;HPM_P2
2022/04/29 00:01:58;;;;;;;10.93;7.05;;;;;;;11.27;49.13;94348.84;4984349;28;20022;-70
2022/04/29 00:04:24;;;;;;;10.05;5.95;;;;;;;11.19;49.16;94325.63;4988542;28;20046;-69
2022/04/29 00:06:50;;;;;;;8.65;5.88;;;;;;;11.42;49.29;94358.31;4991143;28;20034;-71
2022/04/29 00:09:15;;;;;;;8.45;6.10;;;;;;;11.40;49.26;94363.94;4984155;28;20653;-70
2022/04/29 00:11:41;;;;;;;12.75;6.80;;;;;;;11.28;49.32;94354.94;4990188;28;20053;-69
2022/04/29 00:14:06;;;;;;;9.88;6.57;;;;;;;11.14;49.69;94358.47;4981878;28;20087;-69
2022/04/29 00:16:32;;;;;;;9.70;6.22;;;;;;;11.12;50.12;94357.97;4993676;28;20037;-69
2022/04/29 00:18:57;;;;;;;12.07;7.20;;;;;;;11.14;50.41;94360.34;4991460;28;20120;-70
2022/04/29 00:21:23;;;;;;;12.27;6.55;;;;;;;11.12;50.07;94336.69;4990427;28;20405;-69
2022/04/29 00:23:49;;;;;;;9.88;6.38;;;;;;;11.26;49.91;94351.78;4991842;28;20085;-70
2022/04/29 00:26:14;;;;;;;9.88;6.80;;;;;;;11.33;49.76;94350.28;4989183;28;20026;-69
2022/04/29 00:28:40;;;;;;;13.70;7.93;;;;;;;11.40;49.18;94331.19;4993807;28;20117;-70
2022/04/29 00:31:05;;;;;;;10.70;6.88;;;;;;;11.43;49.32;94347.38;4989585;28;20038;-68
2022/04/29 00:33:31;;;;;;;10.60;6.35;;;;;;;11.60;49.55;94352.03;4985549;28;20042;-70
2022/04/29 00:35:56;;;;;;;10.00;6.72;;;;;;;11.53;49.62;94338.38;4977290;28;20054;-68
2022/04/29 00:38:21;;;;;;;12.90;6.93;;;;;;;11.62;49.66;94338.41;4994192;28;20025;-69
2022/04/29 00:40:48;;;;;;;15.65;7.63;;;;;;;11.71;49.17;94352.53;4972789;28;20105;-69
2022/04/29 00:43:14;;;;;;;12.95;7.43;;;;;;;11.64;49.73;94342.31;4985092;28;20141;-69
2022/04/29 00:45:39;;;;;;;11.45;6.25;;;;;;;11.55;49.39;94322.84;4996411;28;21066;-69
2022/04/29 00:48:08;;;;;;;11.10;6.95;;;;;;;11.55;49.58;94330.84;4981565;28;20053;-69
2022/04/29 00:50:34;;;;;;;11.02;6.97;;;;;;;11.49;49.77;94334.72;4978844;28;20030;-69
2022/04/29 00:53:01;;;;;;;11.77;6.50;;;;;;;11.58;49.94;94332.91;4973382;28;20109;-69
2022/04/29 00:55:28;;;;;;;13.10;7.53;;;;;;;11.67;49.82;94331.06;4976632;28;20030;-69
2022/04/29 00:58:16;;;;;;;12.40;7.32;;;;;;;11.76;49.46;94329.22;4983813;28;20498;-69
2022/04/29 01:00:42;;;;;;;12.18;7.57;;;;;;;11.83;49.42;94326.13;4994589;28;20050;-70
2022/04/29 01:03:11;;;;;;;12.88;7.75;;;;;;;11.86;48.93;94310.28;4992606;28;20060;-69
2022/04/29 01:05:39;;;;;;;11.00;7.32;;;;;;;11.92;48.71;94324.28;4986776;28;20417;-69
2022/04/29 01:08:05;;;;;;;12.25;7.45;;;;;;;12.01;48.93;94325.88;4978123;28;20014;-69
2022/04/29 01:10:31;;;;;;;12.02;6.88;;;;;;;11.93;48.52;94318.59;4973107;28;20038;-69
2022/04/29 01:12:58;;;;;;;13.48;6.90;;;;;;;12.00;47.85;94315.50;4971059;28;20041;-68
2022/04/29 01:15:28;;;;;;;14.00;8.10;;;;;;;11.97;48.16;94316.13;4970239;28;20290;-69
2022/04/29 01:18:02;;;;;;;7.93;5.43;;;;;;;11.74;48.10;94299.41;4969735;28;20034;-69
2022/04/29 01:20:31;;;;;;;9.93;6.57;;;;;;;11.90;48.06;94313.91;4983438;28;20780;-69
2022/04/29 01:22:57;;;;;;;8.95;5.90;;;;;;;11.63;47.75;94300.81;4994116;28;20052;-69
2022/04/29 01:25:23;;;;;;;6.88;4.97;;;;;;;11.71;48.35;94325.91;4994328;28;20517;-69
2022/04/29 01:27:49;;;;;;;9.00;5.78;;;;;;;11.71;48.10;94316.03;4988266;28;20148;-69
2022/04/29 01:30:18;;;;;;;10.38;6.80;;;;;;;11.79;47.88;94307.28;4991110;28;20026;-69
2022/04/29 01:32:44;;;;;;;7.55;5.15;;;;;;;11.65;47.92;94313.81;4986471;28;20057;-69
2022/04/29 01:35:12;;;;;;;10.60;6.35;;;;;;;11.51;48.37;94297.91;4974964;28;20037;-69
2022/04/29 01:37:38;;;;;;;10.05;6.00;;;;;;;11.50;48.46;94304.31;4966612;28;20521;-70
2022/04/29 01:40:05;;;;;;;10.85;5.97;;;;;;;11.60;48.74;94318.19;4979025;28;20038;-69
2022/04/29 01:42:31;;;;;;;10.35;6.28;;;;;;;11.55;48.69;94307.66;4979276;28;20544;-69
2022/04/29 01:44:56;;;;;;;8.90;5.60;;;;;;;11.62;48.76;94307.22;4961126;28;20807;-69
2022/04/29 01:47:22;;;;;;;11.02;6.38;;;;;;;11.53;48.73;94315.19;4976568;28;20591;-68
2022/04/29 01:49:48;;;;;;;8.02;5.57;;;;;;;11.28;49.08;94296.38;4975780;28;20040;-70
2022/04/29 01:52:13;;;;;;;9.18;5.80;;;;;;;11.24;49.61;94311.38;4971416;28;20203;-69
2022/04/29 01:54:39;;;;;;;9.40;6.22;;;;;;;11.22;49.52;94302.91;4978951;28;20414;-68
2022/04/29 01:57:06;;;;;;;8.82;6.75;;;;;;;11.31;49.78;94315.19;4967771;28;20057;-69
2022/04/29 01:59:33;;;;;;;10.82;6.57;;;;;;;11.14;49.95;94291.13;4972698;28;20398;-69
2022/04/29 02:01:58;;;;;;;9.88;6.18;;;;;;;11.19;50.09;94317.63;4966232;28;20022;-69
2022/04/29 02:04:25;;;;;;;10.32;6.57;;;;;;;11.38;50.32;94317.41;4974043;28;20066;-68
2022/04/29 02:06:50;;;;;;;9.40;6.25;;;;;;;11.39;49.75;94325.09;4968920;28;20100;-70
2022/04/29 02:09:15;;;;;;;9.32;5.57;;;;;;;11.30;50.12;94316.25;4975649;28;20038;-69
2022/04/29 02:12:03;;;;;;;10.07;5.63;;;;;;;11.25;49.98;94316.38;4973062;28;20101;-69
2022/04/29 02:14:27;;;;;;;10.15;6.55;;;;;;;11.09;50.22;94305.34;4970236;28;20026;-68
2022/04/29 02:16:53;;;;;;;10.45;6.78;;;;;;;10.98;50.42;94305.88;4969987;28;20113;-69
2022/04/29 02:19:18;;;;;;;10.80;6.28;;;;;;;10.81;51.20;94327.06;4974601;28;20545;-69
2022/04/29 02:21:44;;;;;;;9.75;6.47;;;;;;;10.81;51.80;94319.84;4972346;28;20042;-70
2022/04/29 02:24:09;;;;;;;9.65;6.45;;;;;;;10.78;51.93;94322.34;4973142;28;20123;-70
2022/04/29 02:26:34;;;;;;;12.02;6.00;;;;;;;10.66;52.18;94323.66;4973023;28;20041;-69
2022/04/29 02:29:00;;;;;;;10.10;6.72;;;;;;;10.69;52.23;94333.69;4966955;28;20287;-69
2022/04/29 02:31:25;;;;;;;11.48;6.63;;;;;;;10.80;52.32;94336.13;4974685;28;20035;-69
2022/04/29 02:33:50;;;;;;;9.27;6.25;;;;;;;10.76;51.94;94322.63;4968873;28;20490;-70
2022/04/29 02:36:16;;;;;;;10.50;6.32;;;;;;;10.75;52.30;94326.41;4960010;28;20030;-69
2022/04/29 02:38:44;;;;;;;10.88;7.13;;;;;;;10.67;52.87;94329.75;4969338;28;20087;-69
2022/04/29 02:41:09;;;;;;;12.02;6.78;;;;;;;10.55;52.87;94326.84;4969525;28;20082;-70
2022/04/29 02:43:35;;;;;;;10.98;7.00;;;;;;;10.74;52.74;94332.78;4967667;28;20050;-69
2022/04/29 02:46:00;;;;;;;11.05;7.30;;;;;;;10.89;52.32;94331.66;4968848;28;20039;-69
2022/04/29 02:48:26;;;;;;;11.60;7.00;;;;;;;10.77;52.48;94323.41;4964098;28;20128;-69
2022/04/29 02:50:51;;;;;;;11.80;7.38;;;;;;;10.81;52.41;94330.50;4969070;28;20113;-69
2022/04/29 02:53:16;;;;;;;10.65;6.45;;;;;;;10.96;51.90;94334.66;4972877;28;20049;-69
2022/04/29 02:55:42;;;;;;;10.63;6.40;;;;;;;10.78;52.56;94320.47;4969234;28;20097;-69
2022/04/29 02:58:07;;;;;;;9.77;5.65;;;;;;;10.76;52.68;94322.63;4960122;28;20134;-70
2022/04/29 03:00:32;;;;;;;9.43;6.45;;;;;;;10.75;53.21;94334.38;4966577;28;20425;-69
2022/04/29 03:02:58;;;;;;;10.20;5.75;;;;;;;10.66;53.24;94312.25;4970759;28;20493;-69
2022/04/29 03:05:23;;;;;;;10.25;6.38;;;;;;;10.72;53.23;94314.47;4966707;28;20114;-69
2022/04/29 03:07:49;;;;;;;11.02;6.97;;;;;;;10.87;53.41;94329.28;4966568;28;20371;-69
2022/04/29 03:10:14;;;;;;;8.20;5.25;;;;;;;11.04;52.66;94329.44;4964396;28;20042;-69
2022/04/29 03:12:39;;;;;;;10.10;5.97;;;;;;;10.86;53.07;94333.03;4969165;28;20260;-69
2022/04/29 03:15:18;;;;;;;9.35;5.43;;;;;;;11.03;52.58;94333.19;4966968;28;20057;-68
2022/04/29 03:20:35;;;;;;;7.80;4.75;;;;;;;10.91;52.48;94340.91;4981068;28;21187;-68
2022/04/29 03:23:01;;;;;;;10.45;5.32;;;;;;;10.92;53.02;94331.03;4992607;28;20193;-69
2022/04/29 03:25:27;;;;;;;8.85;5.10;;;;;;;10.81;52.77;94324.41;4995758;28;20040;-70
2022/04/29 03:27:52;;;;;;;7.53;5.03;;;;;;;10.84;53.00;94329.91;4989808;28;20468;-69
2022/04/29 03:30:18;;;;;;;8.18;5.35;;;;;;;10.75;52.95;94331.72;4992989;28;20355;-68
2022/04/29 03:32:51;;;;;;;7.82;4.78;;;;;;;10.76;53.42;94327.94;4983725;28;20038;-69
2022/04/29 03:35:17;;;;;;;7.97;5.43;;;;;;;10.55;53.38;94308.22;4992930;28;20022;-69
2022/04/29 03:37:42;;;;;;;10.23;4.82;;;;;;;10.39;54.00;94302.47;4985292;28;20628;-68
2022/04/29 03:40:08;;;;;;;8.73;5.30;;;;;;;10.42;54.15;94322.34;4991541;28;20046;-68
2022/04/29 03:42:34;;;;;;;8.60;4.90;;;;;;;10.46;54.62;94339.28;4988419;28;20049;-68
2022/04/29 03:44:59;;;;;;;10.98;6.28;;;;;;;10.42;54.64;94338.28;4984959;28;20405;-70
2022/04/29 03:47:26;;;;;;;9.73;4.40;;;;;;;10.43;55.09;94345.97;4989959;28;20478;-69
2022/04/29 03:49:51;;;;;;;10.52;5.43;;;;;;;10.53;54.90;94355.59;4991465;28;20671;-69
2022/04/29 03:52:16;;;;;;;7.85;4.60;;;;;;;10.14;55.35;94316.25;4989228;28;20041;-69
2022/04/29 03:54:42;;;;;;;8.40;4.72;;;;;;;10.33;55.55;94336.31;4989577;28;20046;-69
2022/04/29 03:57:08;;;;;;;6.72;5.05;;;;;;;10.41;55.96;94352.69;4988898;28;20041;-70
2022/04/29 03:59:33;;;;;;;11.20;5.70;;;;;;;10.46;55.75;94360.56;4990241;28;20111;-70
2022/04/29 04:01:59;;;;;;;7.55;5.15;;;;;;;10.51;55.87;94349.81;4987112;28;20387;-69
2022/04/29 04:04:24;;;;;;;9.63;5.30;;;;;;;10.41;55.99;94342.06;4993323;28;20403;-69
2022/04/29 04:06:50;;;;;;;7.63;5.15;;;;;;;10.36;56.16;94360.75;4975534;28;20050;-69
2022/04/29 04:09:17;;;;;;;9.35;5.38;;;;;;;10.32;56.86;94361.31;4971456;28;20132;-70
2022/04/29 04:11:42;;;;;;;9.48;5.72;;;;;;;10.53;56.48;94360.94;4971011;28;20738;-69
2022/04/29 04:14:09;;;;;;;7.35;4.53;;;;;;;10.59;56.10;94333.13;4972308;28;20032;-69
2022/04/29 04:16:37;;;;;;;8.32;5.13;;;;;;;10.61;55.03;94342.38;4968129;28;20030;-68
2022/04/29 04:19:04;;;;;;;9.85;5.90;;;;;;;10.73;54.75;94365.81;4963785;28;20038;-70
2022/04/29 04:21:29;;;;;;;7.90;5.28;;;;;;;10.55;55.49;94364.88;4976294;28;20338;-70
2022/04/29 04:23:55;;;;;;;10.07;5.45;;;;;;;10.64;55.61;94367.59;4981441;28;20030;-70
2022/04/29 04:26:21;;;;;;;12.57;5.68;;;;;;;10.54;55.46;94362.50;4973866;28;20030;-70
2022/04/29 04:28:46;;;;;;;11.18;6.47;;;;;;;10.48;55.85;94363.69;4994158;28;20041;-70
2022/04/29 04:31:12;;;;;;;8.52;5.90;;;;;;;10.39;55.54;94350.31;4969298;28;20402;-69
2022/04/29 04:33:37;;;;;;;9.93;6.25;;;;;;;10.38;56.17;94369.22;4969338;28;20050;-70
2022/04/29 04:36:04;;;;;;;11.13;6.38;;;;;;;10.42;55.93;94354.25;4965090;28;20043;-70
2022/04/29 04:38:32;;;;;;;9.45;6.63;;;;;;;10.52;55.96;94372.63;4966546;28;20549;-69
2022/04/29 04:40:58;;;;;;;10.82;6.22;;;;;;;10.66;56.14;94370.75;4967033;28;20038;-69
2022/04/29 04:43:27;;;;;;;11.00;6.13;;;;;;;10.70;55.68;94375.19;4961592;28;20493;-69
2022/04/29 04:45:54;;;;;;;9.68;5.97;;;;;;;10.75;55.32;94371.63;4969160;28;20077;-70
2022/04/29 04:48:20;;;;;;;8.63;6.50;;;;;;;10.80;55.47;94366.19;4967907;28;20042;-70
2022/04/29 04:50:46;;;;;;;9.65;6.20;;;;;;;10.84;55.15;94351.19;4966526;28;20046;-70
2022/04/29 04:53:11;;;;;;;8.13;5.63;;;;;;;11.02;54.83;94368.84;4969891;28;20367;-69
2022/04/29 04:55:37;;;;;;;10.43;6.78;;;;;;;11.13;54.83;94372.88;4967942;28;20041;-70
2022/04/29 04:58:03;;;;;;;11.93;6.70;;;;;;;11.22;54.64;94372.13;4966086;28;20113;-70
2022/04/29 05:00:29;;;;;;;9.70;6.10;;;;;;;11.17;54.52;94365.06;4964478;28;20100;-70
2022/04/29 05:02:55;;;;;;;11.02;6.30;;;;;;;10.94;55.04;94372.25;4967634;28;20058;-70
2022/04/29 05:05:20;;;;;;;13.85;8.18;;;;;;;11.02;55.06;94357.41;4963139;28;20156;-70
2022/04/29 05:07:46;;;;;;;9.85;6.78;;;;;;;10.92;54.82;94350.47;4967974;28;20580;-69
2022/04/29 05:10:12;;;;;;;14.10;6.47;;;;;;;11.06;55.33;94367.16;4966197;28;20379;-71
2022/04/29 05:12:46;;;;;;;13.20;6.28;;;;;;;11.15;55.28;94357.34;4969800;28;20034;-70
2022/04/29 05:15:14;;;;;;;13.32;7.30;;;;;;;11.17;55.31;94349.06;4966947;28;20038;-70
2022/04/29 05:17:40;;;;;;;14.70;8.20;;;;;;;11.27;55.12;94364.03;4970016;28;20027;-70
2022/04/29 05:20:11;;;;;;;12.70;7.18;;;;;;;11.27;55.25;94362.16;4971744;28;20502;-70
2022/04/29 05:22:37;;;;;;;15.13;8.32;;;;;;;11.32;54.94;94367.34;4970777;28;20034;-69
2022/04/29 05:25:04;;;;;;;11.55;7.38;;;;;;;11.39;54.65;94372.25;4970341;28;20073;-69
2022/04/29 05:27:30;;;;;;;12.07;7.05;;;;;;;11.26;55.02;94371.22;4970516;28;20038;-70
2022/04/29 05:29:55;;;;;;;9.52;5.85;;;;;;;11.40;54.70;94365.81;4971035;28;20451;-70
2022/04/29 05:32:21;;;;;;;16.08;7.82;;;;;;;11.25;54.61;94344.91;4972111;28;20093;-69
2022/04/29 05:34:47;;;;;;;12.18;7.28;;;;;;;11.15;55.16;94373.34;4967484;28;20483;-69
2022/04/29 05:37:13;;;;;;;11.57;6.75;;;;;;;11.01;55.39;94356.63;4971160;28;20084;-70
2022/04/29 05:42:24;;;;;;;11.80;7.90;;;;;;;10.59;56.62;94341.91;4968008;28;20049;-69
2022/04/29 05:44:50;;;;;;;12.00;7.47;;;;;;;10.68;57.47;94373.91;4965284;28;20145;-69
2022/04/29 05:47:16;;;;;;;12.75;8.45;;;;;;;10.57;57.52;94356.56;4971346;28;20022;-70
2022/04/29 05:49:41;;;;;;;13.93;7.53;;;;;;;10.59;58.01;94370.38;4969528;28;20495;-69
2022/04/29 05:52:08;;;;;;;13.25;8.00;;;;;;;10.53;58.39;94366.25;4972544;28;20168;-69
2022/04/29 05:54:34;;;;;;;16.35;8.48;;;;;;;10.62;58.39;94372.44;4986234;28;20030;-70
2022/04/29 05:57:01;;;;;;;13.00;7.47;;;;;;;10.75;58.04;94384.94;4992233;28;20346;-70
2022/04/29 05:59:26;;;;;;;13.85;8.52;;;;;;;10.71;57.67;94355.44;4997172;28;20117;-69
2022/04/29 06:01:52;;;;;;;12.68;6.95;;;;;;;10.89;57.13;94382.22;4989713;28;20432;-69
2022/04/29 06:04:17;;;;;;;10.15;6.22;;;;;;;10.94;57.24;94388.22;4993989;28;20510;-69
2022/04/29 06:06:42;;;;;;;13.02;7.63;;;;;;;10.95;57.03;94389.00;4991586;28;20030;-70
2022/04/29 06:09:08;;;;;;;10.23;6.20;;;;;;;11.01;56.30;94377.13;4985778;28;20133;-69
2022/04/29 06:11:34;;;;;;;10.32;7.05;;;;;;;11.02;56.08;94360.88;4974052;28;20405;-69
2022/04/29 06:13:59;;;;;;;11.52;7.40;;;;;;;11.33;55.79;94400.09;4967625;28;20015;-69
2022/04/29 06:16:26;;;;;;;10.10;6.22;;;;;;;11.26;55.90;94383.75;4968420;28;20053;-70
2022/04/29 06:18:51;;;;;;;21.98;8.05;;;;;;;11.23;56.40;94400.34;4968032;28;20031;-69
2022/04/29 06:21:18;;;;;;;12.25;7.90;;;;;;;11.38;56.46;94386.66;4970208;28;20042;-70
2022/04/29 06:23:44;;;;;;;11.07;6.75;;;;;;;11.17;55.83;94368.50;4971158;28;20494;-70
2022/04/29 06:26:12;;;;;;;10.90;7.07;;;;;;;11.39;55.39;94383.69;4970598;28;20474;-69
2022/04/29 06:28:38;;;;;;;10.98;6.50;;;;;;;11.38;55.13;94402.63;4968398;28;20678;-70
2022/04/29 06:31:04;;;;;;;13.80;7.47;;;;;;;11.36;55.43;94400.25;4967460;28;20165;-70
2022/04/29 06:33:30;;;;;;;11.88;7.75;;;;;;;10.92;56.07;94374.41;4964792;28;20064;-70
2022/04/29 06:35:56;;;;;;;9.75;6.68;;;;;;;11.09;56.41;94395.84;4963864;28;20062;-69
2022/04/29 06:38:21;;;;;;;12.05;7.22;;;;;;;11.18;56.56;94402.03;4971708;28;20585;-70
2022/04/29 06:40:47;;;;;;;11.57;7.22;;;;;;;10.86;56.46;94343.69;4966641;28;20387;-69
2022/04/29 06:43:12;;;;;;;11.73;7.05;;;;;;;11.35;56.61;94405.88;4967807;28;20133;-69
2022/04/29 06:45:37;;;;;;;13.05;7.95;;;;;;;11.28;56.70;94389.56;4970397;28;20050;-70
2022/04/29 06:48:03;;;;;;;12.00;7.75;;;;;;;11.41;56.12;94405.47;4968483;28;20042;-69
2022/04/29 06:50:29;;;;;;;11.70;7.05;;;;;;;11.53;55.53;94392.44;4966616;28;20467;-70
2022/04/29 06:52:54;;;;;;;9.55;6.15;;;;;;;11.42;55.22;94388.41;4969646;28;20080;-70
2022/04/29 06:55:19;;;;;;;12.77;6.75;;;;;;;11.56;55.68;94404.34;4965613;28;20443;-70
2022/04/29 06:57:46;;;;;;;11.98;6.63;;;;;;;11.59;54.47;94395.72;4967795;28;20042;-70
2022/04/29 07:00:12;;;;;;;10.30;7.22;;;;;;;11.65;54.98;94402.50;4969394;28;20125;-69
2022/04/29 07:02:38;;;;;;;11.98;6.93;;;;;;;11.63;54.60;94398.59;4967093;28;20022;-68
2022/04/29 07:05:04;;;;;;;12.65;7.15;;;;;;;11.74;55.08;94395.34;4966529;28;20053;-69
2022/04/29 07:07:30;;;;;;;12.07;7.18;;;;;;;12.02;53.50;94386.09;4965017;28;20137;-69
2022/04/29 07:09:55;;;;;;;7.97;5.97;;;;;;;11.87;52.79;94378.50;4965543;28;20046;-69
2022/04/29 07:12:21;;;;;;;11.85;7.30;;;;;;;11.87;53.24;94375.84;4957932;28;20034;-69
2022/04/29 07:14:46;;;;;;;10.10;5.95;;;;;;;12.10;53.33;94389.09;4966993;28;20034;-69
2022/04/29 07:17:12;;;;;;;11.20;7.03;;;;;;;11.95;52.86;94363.63;4965798;28;20402;-68
2022/04/29 07:19:38;;;;;;;11.10;6.88;;;;;;;12.12;53.03;94386.91;4968860;28;20069;-69
2022/04/29 07:22:05;;;;;;;8.18;5.70;;;;;;;12.16;52.19;94374.53;4965332;28;20034;-69
2022/04/29 07:24:30;;;;;;;10.48;6.70;;;;;;;12.09;52.21;94371.50;4965639;28;20640;-70
2022/04/29 07:26:57;;;;;;;8.05;5.63;;;;;;;12.09;52.01;94355.50;4968169;28;20046;-69
2022/04/29 07:29:22;;;;;;;11.13;6.80;;;;;;;12.39;51.28;94384.00;4967332;28;20026;-68
2022/04/29 07:31:48;;;;;;;10.35;6.07;;;;;;;12.10;51.29;94322.44;4967276;28;20041;-70
2022/04/29 07:34:13;;;;;;;9.40;6.90;;;;;;;12.36;50.57;94363.28;4963926;28;20122;-69
2022/04/29 07:42:06;;;;;;;9.88;5.90;;;;;;;12.17;50.29;94317.44;4965197;28;20061;-69
2022/04/29 07:44:31;;;;;;;11.07;6.30;;;;;;;12.70;50.29;94379.41;4963213;28;20082;-69
2022/04/29 07:46:57;;;;;;;9.55;7.20;;;;;;;12.64;50.51;94367.28;4966441;28;20449;-69
2022/04/29 07:49:22;;;;;;;10.88;6.35;;;;;;;12.77;49.76;94368.25;4961419;28;20034;-69
2022/04/29 07:51:48;;;;;;;10.15;6.25;;;;;;;12.70;49.85;94354.59;4969121;28;20045;-70
2022/04/29 07:54:13;;;;;;;9.27;5.63;;;;;;;13.00;49.39;94374.25;4967914;28;20037;-69
2022/04/29 07:56:39;;;;;;;9.63;6.25;;;;;;;12.99;49.58;94364.66;4987909;28;20708;-69
2022/04/29 07:59:04;;;;;;;13.65;6.43;;;;;;;13.14;49.40;94372.97;4986264;28;20022;-69
2022/04/29 08:01:30;;;;;;;8.20;5.28;;;;;;;13.12;49.73;94363.69;4985204;28;20506;-69
2022/04/29 08:03:58;;;;;;;9.52;6.00;;;;;;;13.37;49.38;94376.25;4992288;28;20034;-68
2022/04/29 08:06:23;;;;;;;9.88;6.43;;;;;;;13.07;48.37;94326.47;4992041;28;20037;-68
2022/04/29 08:08:48;;;;;;;9.88;5.90;;;;;;;13.19;48.37;94348.78;4985453;28;20501;-70
2022/04/29 08:11:18;;;;;;;8.02;5.32;;;;;;;13.49;48.07;94368.38;4969484;28;20565;-69
2022/04/29 08:13:44;;;;;;;14.85;7.18;;;;;;;13.43;47.88;94348.28;4991033;28;20093;-70
2022/04/29 08:16:11;;;;;;;9.02;6.32;;;;;;;13.15;48.08;94352.41;4994449;28;20591;-69
2022/04/29 08:18:36;;;;;;;10.20;6.43;;;;;;;13.55;47.09;94369.75;4990776;28;20121;-70
2022/04/29 08:21:02;;;;;;;8.88;5.72;;;;;;;13.59;47.63;94362.72;4990837;28;20040;-69
2022/04/29 08:23:27;;;;;;;11.95;5.47;;;;;;;13.71;46.16;94360.19;4990621;28;20037;-70
2022/04/29 08:25:53;;;;;;;8.40;5.50;;;;;;;13.83;45.14;94353.38;4986492;28;20029;-70
2022/04/29 08:28:18;;;;;;;8.07;5.60;;;;;;;13.82;46.01;94349.13;4988624;28;20406;-69
2022/04/29 08:30:45;;;;;;;8.90;6.30;;;;;;;13.63;46.78;94369.00;4989373;28;20038;-68
2022/04/29 08:33:14;;;;;;;7.70;5.43;;;;;;;13.51;46.63;94368.03;4988575;28;20552;-69
2022/04/29 08:35:40;;;;;;;8.15;5.57;;;;;;;13.32;46.74;94368.41;4991848;28;20467;-69
2022/04/29 08:38:09;;;;;;;10.68;6.38;;;;;;;13.35;46.50;94367.75;4990273;28;20026;-69
2022/04/29 08:40:35;;;;;;;7.93;4.95;;;;;;;13.34;46.40;94350.19;4991047;28;20444;-69
2022/04/29 08:43:04;;;;;;;8.07;5.25;;;;;;;13.53;46.59;94369.31;4984374;28;20030;-69
2022/04/29 08:45:29;;;;;;;8.55;5.10;;;;;;;13.50;46.17;94359.25;4978497;28;20043;-69
2022/04/29 08:47:55;;;;;;;7.47;5.60;;;;;;;13.09;46.37;94342.97;4980248;28;20100;-70
2022/04/29 08:50:21;;;;;;;7.00;4.90;;;;;;;13.32;45.80;94347.03;4995553;28;20037;-69
2022/04/29 08:52:48;;;;;;;6.82;4.35;;;;;;;13.21;44.91;94332.41;4989198;28;20037;-69
2022/04/29 09:00:44;;;;;;;9.25;5.30;;;;;;;13.80;44.40;94351.34;4973303;28;20053;-69
2022/04/29 09:03:18;;;;;;;7.60;3.88;;;;;;;13.77;44.95;94351.97;4973117;28;20041;-69
2022/04/29 09:05:45;;;;;;;7.22;5.05;;;;;;;13.70;44.25;94326.53;4994974;28;20033;-69
2022/04/29 09:08:19;;;;;;;6.97;4.35;;;;;;;13.92;44.02;94343.44;4991495;28;20018;-69
2022/04/29 09:10:52;;;;;;;7.03;4.70;;;;;;;13.85;43.94;94329.78;4992806;28;20611;-69
2022/04/29 09:13:24;;;;;;;6.75;4.68;;;;;;;13.99;44.02;94333.00;4993974;28;20037;-70
2022/04/29 09:15:59;;;;;;;7.32;4.60;;;;;;;13.96;44.02;94322.97;4990129;28;20037;-69
2022/04/29 09:18:34;;;;;;;5.95;4.65;;;;;;;13.87;44.88;94340.94;4991266;28;20125;-70
2022/04/29 09:21:10;;;;;;;6.20;4.50;;;;;;;13.84;44.76;94342.34;4995603;28;20042;-69
2022/04/29 09:23:37;;;;;;;9.35;5.03;;;;;;;13.81;44.48;94321.63;4989594;28;20026;-70
2022/04/29 09:26:05;;;;;;;6.65;5.10;;;;;;;13.92;44.25;94327.41;4992957;28;20026;-69
2022/04/29 09:28:35;;;;;;;7.95;4.75;;;;;;;13.91;43.76;94323.16;4993101;28;20041;-70
2022/04/29 09:31:04;;;;;;;8.63;5.28;;;;;;;13.99;43.88;94327.66;4988232;28;20083;-70
2022/04/29 09:33:32;;;;;;;10.57;5.13;;;;;;;14.03;43.77;94333.97;4980811;28;20150;-69
2022/04/29 09:35:58;;;;;;;7.63;4.85;;;;;;;14.16;43.50;94343.66;4971380;28;20042;-69
2022/04/29 09:41:08;;;;;;;5.35;4.05;;;;;;;14.32;43.07;94331.28;4969528;28;20081;-69
2022/04/29 09:43:44;;;;;;;7.10;4.95;;;;;;;14.52;43.10;94329.75;4972352;28;20042;-69
2022/04/29 09:46:21;;;;;;;7.35;4.57;;;;;;;14.23;43.86;94332.44;4987648;28;20050;-68
2022/04/29 09:49:06;;;;;;;7.63;4.63;;;;;;;14.22;43.41;94328.19;4986297;28;20041;-68
2022/04/29 09:51:43;;;;;;;;;;;;;;;14.44;42.51;94334.03;4989441;28;20662;-67
2022/04/29 09:54:26;;;;;;;7.50;5.15;;;;;;;14.41;42.48;94329.34;4977322;28;19928;-69
2022/04/29 09:57:05;;;;;;;7.50;4.90;;;;;;;14.48;41.96;94334.16;4967660;28;20038;-68
2022/04/29 09:59:46;;;;;;;7.72;4.43;;;;;;;14.56;41.68;94331.50;4968808;28;20033;-68
2022/04/29 10:02:23;;;;;;;8.10;4.43;;;;;;;14.42;41.48;94327.47;4965449;28;20014;-72
2022/04/29 10:04:50;;;;;;;8.82;4.97;;;;;;;13.98;42.19;94315.44;4973825;28;20042;-70
2022/04/29 10:07:18;;;;;;;8.65;4.30;;;;;;;13.94;42.30;94338.53;4984150;28;20959;-69
2022/04/29 10:09:54;;;;;;;9.07;5.07;;;;;;;14.20;42.51;94317.81;4989762;28;20393;-69
2022/04/29 10:12:22;;;;;;;6.45;4.13;;;;;;;14.11;42.89;94319.75;4975930;28;20105;-69
2022/04/29 10:14:51;;;;;;;7.68;4.68;;;;;;;14.26;41.78;94315.75;4995103;28;20037;-69
2022/04/29 10:22:50;;;;;;;7.72;4.30;;;;;;;14.34;41.03;94293.50;4964672;28;20401;-69
2022/04/29 10:25:17;;;;;;;6.85;3.75;;;;;;;14.47;40.74;94306.63;4966401;28;20058;-69
2022/04/29 10:27:44;;;;;;;10.23;4.88;;;;;;;14.37;41.24;94295.53;4963734;28;20061;-68
2022/04/29 10:30:10;;;;;;;7.55;4.78;;;;;;;14.24;41.44;94297.34;4966925;28;20038;-72
2022/04/29 10:32:57;;;;;;;9.32;4.75;;;;;;;14.60;41.60;94302.97;4967277;28;20394;-71
2022/04/29 10:35:49;;;;;;;7.82;5.35;;;;;;;14.22;41.22;94304.13;4966053;28;20022;-71
2022/04/29 10:38:25;;;;;;;8.13;5.18;;;;;;;14.11;42.30;94304.50;4970582;28;20045;-71
2022/04/29 10:41:06;;;;;;;11.60;5.40;;;;;;;14.44;41.73;94306.50;4973377;28;20133;-71
2022/04/29 10:43:32;;;;;;;7.68;4.60;;;;;;;14.03;41.48;94288.50;4982930;28;20040;-70
2022/04/29 10:46:03;;;;;;;8.70;5.53;;;;;;;14.15;42.52;94301.94;4992579;28;20397;-71
2022/04/29 10:48:34;;;;;;;6.95;4.72;;;;;;;14.44;42.11;94285.88;4992391;28;20046;-71
2022/04/29 10:51:41;;;;;;;8.93;5.45;;;;;;;14.63;41.82;94298.03;4990099;28;20042;-71
2022/04/29 10:54:07;;;;;;;8.80;5.32;;;;;;;14.66;42.29;94292.06;4991634;28;20044;-71
2022/04/29 10:56:32;;;;;;;7.28;4.60;;;;;;;14.71;41.11;94289.19;4986543;28;20033;-71
2022/04/29 10:59:04;;;;;;;8.82;5.45;;;;;;;14.64;41.81;94287.03;4993002;28;20029;-72
2022/04/29 11:01:34;;;;;;;6.63;4.60;;;;;;;14.74;42.71;94270.56;4967271;28;20038;-72
2022/04/29 11:04:14;;;;;;;7.57;4.95;;;;;;;14.89;41.53;94294.06;4971445;28;20037;-71
2022/04/29 11:06:45;;;;;;;7.57;4.93;;;;;;;14.68;41.05;94263.06;4965302;28;20601;-71
2022/04/29 11:09:30;;;;;;;10.07;5.47;;;;;;;14.54;41.13;94274.81;4962769;28;20038;-71
2022/04/29 11:11:57;;;;;;;8.20;5.17;;;;;;;14.35;42.50;94269.09;4961076;28;20097;-68
2022/04/29 11:14:23;;;;;;;10.05;5.57;;;;;;;14.44;42.12;94259.09;4973129;28;20691;-71
2022/04/29 11:16:53;;;;;;;7.13;5.00;;;;;;;13.94;42.21;94253.75;4963330;28;20038;-72
2022/04/29 11:19:22;;;;;;;12.80;5.85;;;;;;;14.17;43.36;94263.09;4969570;28;20150;-71
2022/04/29 11:24:42;;;;;;;7.25;5.07;;;;;;;14.32;43.81;94259.06;4968653;28;20045;-71
2022/04/29 11:27:08;;;;;;;7.05;5.45;;;;;;;13.92;43.47;94229.25;4968079;28;20433;-71
2022/04/29 11:29:44;;;;;;;7.45;4.65;;;;;;;14.16;43.31;94255.38;4961869;28;20646;-69
2022/04/29 11:32:10;;;;;;;9.20;5.97;;;;;;;14.42;42.32;94245.25;4967304;28;20479;-71
2022/04/29 11:34:51;;;;;;;6.75;4.95;;;;;;;14.67;44.36;94245.44;4958698;28;20085;-69
2022/04/29 11:37:25;;;;;;;8.25;5.60;;;;;;;14.45;42.16;94222.44;4967085;28;20145;-69
2022/04/29 11:39:58;;;;;;;11.68;5.65;;;;;;;14.73;42.07;94244.91;4966594;28;20037;-70
2022/04/29 11:42:23;;;;;;;8.40;6.28;;;;;;;14.71;41.51;94230.28;4963049;28;20034;-70
2022/04/29 11:44:51;;;;;;;9.38;5.72;;;;;;;14.57;41.84;94231.31;4964072;28;20050;-70
2022/04/29 11:47:23;;;;;;;10.88;5.32;;;;;;;14.58;41.74;94232.91;4972688;28;20088;-69
2022/04/29 11:49:48;;;;;;;7.50;5.30;;;;;;;14.89;42.17;94237.03;4966685;28;20718;-70
2022/04/29 11:52:32;;;;;;;7.75;5.07;;;;;;;14.86;40.91;94211.69;4985458;28;20540;-69
2022/04/29 11:55:02;;;;;;;9.75;5.20;;;;;;;15.06;41.23;94215.44;4965525;28;20510;-69
2022/04/29 11:57:33;;;;;;;7.55;5.22;;;;;;;15.18;40.49;94212.78;4961736;28;20039;-70
2022/04/29 12:00:02;;;;;;;7.88;5.30;;;;;;;15.26;40.18;94219.94;4964505;28;20057;-69